Time;durP1;ratioP1;P1;durP2;ratioP2;P2;SDS_P1;SDS_P2;PMS_P1;PMS_P2;Temp;Humidity;BMP_temperature;BMP_pressure;BME280_temperature;BME280_humidity;BME280_pressure;Samples;Min_cycle;Max_cycle;Signal;HPM_P1;HPM_P2
2021/11/09 00:00:11;;;;;;;5.38;1.70;;;10.70;64.20;;;;;;5051273;28;20032;-73
2021/11/09 00:02:38;;;;;;;2.63;1.65;;;10.70;64.20;;;;;;5051652;28;20021;-74
2021/11/09 00:05:07;;;;;;;5.43;2.10;;;10.60;64.40;;;;;;5049936;28;20029;-72
2021/11/09 00:10:30;;;;;;;5.30;2.10;;;10.60;64.40;;;;;;5027744;28;20029;-73
2021/11/09 00:13:00;;;;;;;4.88;1.90;;;10.60;64.50;;;;;;5050916;28;20108;-75
2021/11/09 00:15:27;;;;;;;7.28;1.80;;;10.60;64.60;;;;;;5051239;28;20021;-73
2021/11/09 00:17:56;;;;;;;4.32;1.95;;;10.60;64.70;;;;;;5050117;28;20041;-72
2021/11/09 00:20:25;;;;;;;4.07;1.77;;;10.60;64.90;;;;;;5050985;28;20013;-73
2021/11/09 00:22:50;;;;;;;4.35;1.90;;;10.60;64.90;;;;;;5051317;28;20382;-74
2021/11/09 00:25:18;;;;;;;4.43;2.08;;;10.60;65.30;;;;;;5051959;28;20021;-74
2021/11/09 00:27:44;;;;;;;3.35;1.88;;;10.50;65.00;;;;;;5054147;28;20024;-72
2021/11/09 00:30:11;;;;;;;5.85;2.00;;;10.50;64.90;;;;;;5055478;28;20391;-75
2021/11/09 00:32:43;;;;;;;5.07;2.20;;;10.50;64.90;;;;;;5055567;28;20481;-73
2021/11/09 00:35:17;;;;;;;5.30;1.77;;;10.50;64.90;;;;;;5055223;28;20022;-73
2021/11/09 00:37:44;;;;;;;5.85;1.80;;;10.60;64.70;;;;;;5054675;28;20021;-72
2021/11/09 00:40:14;;;;;;;4.43;2.07;;;10.60;65.00;;;;;;5054634;28;20373;-72
2021/11/09 00:42:40;;;;;;;9.45;2.25;;;10.50;64.90;;;;;;5053914;28;20025;-73
2021/11/09 00:45:08;;;;;;;4.22;1.80;;;10.50;64.60;;;;;;5054734;28;20021;-73
2021/11/09 00:47:34;;;;;;;8.27;2.10;;;10.40;65.00;;;;;;5054123;28;20029;-75
2021/11/09 00:50:01;;;;;;;5.18;2.83;;;10.50;65.50;;;;;;5054676;28;20024;-73
2021/11/09 00:52:27;;;;;;;3.88;2.17;;;10.40;64.90;;;;;;5054329;28;20094;-73
2021/11/09 00:54:52;;;;;;;3.63;2.08;;;10.40;65.10;;;;;;5054364;28;20092;-73
2021/11/09 00:57:20;;;;;;;6.80;2.43;;;10.40;65.20;;;;;;5053798;28;20020;-74
2021/11/09 00:59:46;;;;;;;4.35;1.70;;;10.40;65.40;;;;;;5054306;28;20381;-73
2021/11/09 01:02:12;;;;;;;3.80;1.85;;;10.40;65.70;;;;;;5054177;28;20029;-74
2021/11/09 01:04:37;;;;;;;4.70;1.73;;;10.40;65.70;;;;;;5053481;28;20075;-73
2021/11/09 01:07:03;;;;;;;6.88;2.40;;;10.40;65.90;;;;;;5053684;28;20031;-73
2021/11/09 01:09:29;;;;;;;7.33;2.03;;;10.30;66.30;;;;;;5053725;28;20400;-74
2021/11/09 01:11:55;;;;;;;12.00;1.90;;;10.30;67.10;;;;;;5053692;28;20120;-73
2021/11/09 01:14:23;;;;;;;4.60;1.70;;;10.20;66.70;;;;;;5053856;28;20027;-74
2021/11/09 01:16:49;;;;;;;6.17;1.87;;;10.20;67.00;;;;;;5053439;28;20116;-73
2021/11/09 01:19:15;;;;;;;5.13;1.93;;;10.20;67.40;;;;;;5053707;28;20483;-73
2021/11/09 01:21:42;;;;;;;3.70;1.63;;;10.20;67.20;;;;;;5054006;28;20470;-73
2021/11/09 01:24:10;;;;;;;4.47;1.97;;;10.20;67.00;;;;;;5053953;28;20025;-76
2021/11/09 01:26:36;;;;;;;4.80;2.03;;;10.10;67.10;;;;;;5054251;28;20022;-73
2021/11/09 01:29:05;;;;;;;5.00;1.90;;;10.10;67.50;;;;;;5050779;28;20017;-73
2021/11/09 01:31:32;;;;;;;3.67;2.17;;;10.10;67.40;;;;;;5051002;28;20087;-74
2021/11/09 01:33:58;;;;;;;5.65;1.95;;;10.10;67.70;;;;;;5051857;28;20055;-73
2021/11/09 01:36:24;;;;;;;4.90;2.10;;;10.10;68.10;;;;;;5052587;28;20094;-73
2021/11/09 01:38:50;;;;;;;4.77;2.10;;;10.10;67.90;;;;;;5052797;28;20021;-73
2021/11/09 01:41:17;;;;;;;6.77;2.20;;;10.00;68.10;;;;;;5054055;28;20027;-73
2021/11/09 01:43:43;;;;;;;5.97;2.07;;;10.00;68.10;;;;;;5052996;28;20389;-73
2021/11/09 01:46:11;;;;;;;4.93;2.40;;;10.00;67.80;;;;;;5053369;28;20099;-73
2021/11/09 01:48:40;;;;;;;4.20;2.00;;;10.00;67.60;;;;;;5053119;28;20094;-73
2021/11/09 01:51:10;;;;;;;5.23;2.30;;;10.00;67.50;;;;;;5051486;28;20323;-73
2021/11/09 01:53:38;;;;;;;3.87;1.90;;;10.00;67.20;;;;;;5053262;28;20025;-73
2021/11/09 01:56:07;;;;;;;4.67;2.07;;;10.00;67.40;;;;;;5053271;28;20032;-74
2021/11/09 01:58:33;;;;;;;8.10;2.50;;;10.00;67.40;;;;;;5052081;28;20017;-73
2021/11/09 02:01:03;;;;;;;5.07;1.73;;;10.00;67.40;;;;;;5050255;28;20021;-73
2021/11/09 02:03:30;;;;;;;5.00;2.10;;;9.90;67.10;;;;;;5050010;28;20021;-74
2021/11/09 02:05:56;;;;;;;7.13;2.30;;;9.90;67.20;;;;;;5052356;28;20056;-73
2021/11/09 02:08:26;;;;;;;7.63;2.33;;;9.90;67.50;;;;;;5053879;28;20485;-73
2021/11/09 02:10:53;;;;;;;5.37;1.80;;;9.90;67.10;;;;;;5053042;28;20025;-72
2021/11/09 02:13:22;;;;;;;5.50;1.90;;;9.90;66.80;;;;;;5052153;28;20021;-73
2021/11/09 02:15:50;;;;;;;4.93;1.67;;;9.90;66.80;;;;;;5052467;28;20063;-73
2021/11/09 02:18:16;;;;;;;5.23;2.10;;;10.00;66.70;;;;;;5052069;28;20047;-73
2021/11/09 02:21:11;;;;;;;7.20;2.00;;;10.00;66.50;;;;;;5051964;28;20021;-72
2021/11/09 02:23:41;;;;;;;4.47;1.93;;;10.00;66.70;;;;;;5050456;28;20115;-74
2021/11/09 02:26:12;;;;;;;4.80;2.13;;;10.00;66.80;;;;;;5052876;28;20033;-72
2021/11/09 02:28:40;;;;;;;5.63;1.97;;;10.00;66.60;;;;;;5052163;28;20528;-73
2021/11/09 02:31:06;;;;;;;4.97;2.07;;;10.00;66.30;;;;;;5051006;28;20135;-73
2021/11/09 02:33:33;;;;;;;5.90;2.00;;;10.00;66.20;;;;;;5052540;28;20025;-74
2021/11/09 02:35:59;;;;;;;7.13;2.03;;;10.00;65.90;;;;;;5052504;28;20083;-74
2021/11/09 02:38:26;;;;;;;4.28;1.88;;;10.00;66.30;;;;;;5052112;28;20029;-75
2021/11/09 02:40:53;;;;;;;4.00;2.03;;;10.10;66.50;;;;;;5052330;28;20029;-73
2021/11/09 02:43:20;;;;;;;8.93;2.30;;;10.10;66.80;;;;;;5051853;28;20021;-72
2021/11/09 02:48:21;;;;;;;3.78;2.03;;;10.10;66.80;;;;;;5052002;28;20040;-73
2021/11/09 02:50:52;;;;;;;6.23;2.00;;;10.10;67.20;;;;;;5051528;28;20025;-73
2021/11/09 02:53:40;;;;;;;3.73;1.70;;;10.00;66.70;;;;;;5051960;28;20037;-72
2021/11/09 02:58:58;;;;;;;4.73;2.10;;;9.90;67.50;;;;;;5052031;28;20037;-74
2021/11/09 03:02:16;;;;;;;5.67;1.80;;;9.90;66.50;;;;;;5052150;28;20020;-74
2021/11/09 03:04:20;;;;;;;4.33;2.03;;;10.00;66.40;;;;;;5047570;28;20436;-75
2021/11/09 03:06:51;;;;;;;5.63;1.60;;;9.90;65.80;;;;;;5053454;28;20104;-75
2021/11/09 03:09:21;;;;;;;6.87;1.87;;;9.90;66.20;;;;;;5052829;28;20385;-72
2021/11/09 03:11:57;;;;;;;5.43;2.23;;;9.90;65.70;;;;;;5053078;28;20043;-73
2021/11/09 03:14:25;;;;;;;5.33;1.97;;;10.00;65.40;;;;;;5052913;28;20060;-74
2021/11/09 03:16:51;;;;;;;4.90;1.70;;;10.00;64.90;;;;;;5052964;28;20481;-75
2021/11/09 03:46:52;;;;;;;5.67;1.90;;;10.20;64.50;;;;;;5052864;28;20060;-74
2021/11/09 03:49:19;;;;;;;5.53;1.90;;;10.10;64.40;;;;;;5052731;28;20067;-74
2021/11/09 03:51:45;;;;;;;4.63;1.70;;;10.10;64.10;;;;;;5052647;28;20045;-74
2021/11/09 03:54:14;;;;;;;6.23;1.90;;;10.20;64.10;;;;;;5052673;28;20488;-73
2021/11/09 03:56:55;;;;;;;4.67;1.90;;;10.20;64.10;;;;;;5052698;28;20032;-73
2021/11/09 03:59:39;;;;;;;4.97;1.90;;;10.20;64.10;;;;;;5052851;28;20096;-75
2021/11/09 04:18:07;;;;;;;3.55;2.05;;;10.30;64.20;;;;;;5056520;28;20052;-73
2021/11/09 04:26:47;;;;;;;4.50;2.00;;;10.30;63.50;;;;;;5056363;28;20116;-74
2021/11/09 05:03:07;;;;;;;6.38;2.22;;;10.20;63.20;;;;;;5056118;28;20175;-73
2021/11/09 05:10:46;;;;;;;5.20;2.10;;;10.20;64.20;;;;;;5055558;28;20040;-73
2021/11/09 05:13:13;;;;;;;4.68;1.90;;;10.10;64.00;;;;;;5055744;28;20473;-72
2021/11/09 05:15:39;;;;;;;4.93;2.10;;;10.10;64.10;;;;;;5055676;28;20061;-73
2021/11/09 05:18:05;;;;;;;12.37;3.03;;;10.10;64.30;;;;;;5055268;28;20060;-74
2021/11/09 05:20:31;;;;;;;6.18;2.42;;;10.10;63.50;;;;;;5055716;28;20025;-73
2021/11/09 05:22:58;;;;;;;5.30;2.33;;;10.20;63.50;;;;;;5055335;28;20033;-74
2021/11/09 05:25:24;;;;;;;7.90;2.27;;;10.10;63.60;;;;;;5055332;28;20032;-76
2021/11/09 05:27:51;;;;;;;4.77;2.13;;;10.20;63.40;;;;;;5055421;28;20362;-74
2021/11/09 05:30:17;;;;;;;6.00;2.60;;;10.20;63.40;;;;;;5054893;28;20032;-74
2021/11/09 05:32:44;;;;;;;4.87;2.60;;;10.20;63.30;;;;;;5055052;28;20480;-75
2021/11/09 05:35:10;;;;;;;7.77;2.80;;;10.30;63.20;;;;;;5054995;28;20060;-74
2021/11/09 05:37:47;;;;;;;8.63;2.63;;;10.20;63.00;;;;;;5055156;28;20039;-75
2021/11/09 05:40:14;;;;;;;7.15;3.15;;;10.20;63.20;;;;;;5055265;28;20027;-73
2021/11/09 05:42:40;;;;;;;6.70;3.20;;;10.20;63.10;;;;;;5054891;28;20397;-73
2021/11/09 05:45:09;;;;;;;6.47;3.23;;;10.20;62.90;;;;;;5054824;28;20039;-74
2021/11/09 05:47:35;;;;;;;5.47;2.70;;;10.30;63.10;;;;;;5054926;28;20021;-73
2021/11/09 05:50:01;;;;;;;7.10;2.40;;;10.20;63.30;;;;;;5055080;28;20037;-75
2021/11/09 05:52:27;;;;;;;7.83;2.50;;;10.20;63.50;;;;;;5054685;28;20113;-75
2021/11/09 05:54:52;;;;;;;7.80;2.43;;;10.20;63.70;;;;;;5054500;28;20025;-75
2021/11/09 05:57:18;;;;;;;5.57;2.33;;;10.20;63.70;;;;;;5054526;28;20037;-75
2021/11/09 05:59:44;;;;;;;6.30;2.37;;;10.20;63.40;;;;;;5054507;28;20025;-74
2021/11/09 06:02:11;;;;;;;9.30;2.50;;;10.20;63.80;;;;;;5054741;28;20032;-73
2021/11/09 06:04:36;;;;;;;6.70;2.43;;;10.20;63.80;;;;;;5054488;28;20462;-72
2021/11/09 06:07:03;;;;;;;6.33;2.47;;;10.20;63.60;;;;;;5054484;28;20025;-73
2021/11/09 06:09:28;;;;;;;6.43;2.10;;;10.20;63.60;;;;;;5054869;28;20473;-73
2021/11/09 06:11:54;;;;;;;7.10;2.70;;;10.20;63.50;;;;;;5054463;28;20041;-74
2021/11/09 06:14:20;;;;;;;6.30;2.23;;;10.20;62.80;;;;;;5054600;28;20449;-75
2021/11/09 06:16:46;;;;;;;5.40;2.10;;;10.20;62.60;;;;;;5054438;28;20040;-75
2021/11/09 06:19:11;;;;;;;5.30;2.08;;;10.20;62.80;;;;;;5054412;28;20056;-75
2021/11/09 06:21:37;;;;;;;5.93;2.55;;;10.20;63.00;;;;;;5054739;28;20040;-76
2021/11/09 06:24:03;;;;;;;7.43;2.30;;;10.20;62.50;;;;;;5053892;28;20025;-75
2021/11/09 06:26:29;;;;;;;4.97;2.43;;;10.30;62.60;;;;;;5054434;28;20100;-75
2021/11/09 06:28:58;;;;;;;5.23;2.30;;;10.30;62.70;;;;;;5055080;28;20056;-75
2021/11/09 06:31:25;;;;;;;5.10;2.42;;;10.30;63.10;;;;;;5054561;28;20033;-76
2021/11/09 06:33:50;;;;;;;3.83;2.00;;;10.30;62.60;;;;;;5054204;28;20028;-73
2021/11/09 06:36:16;;;;;;;7.25;2.83;;;10.30;62.80;;;;;;5053993;28;20021;-75
2021/11/09 06:38:42;;;;;;;4.00;2.10;;;10.30;62.80;;;;;;5053636;28;20025;-74
2021/11/09 06:41:07;;;;;;;5.70;2.15;;;10.30;62.90;;;;;;5053908;28;20025;-73
2021/11/09 06:43:33;;;;;;;6.33;2.17;;;10.30;63.50;;;;;;5053715;28;20561;-72
2021/11/09 06:45:59;;;;;;;7.97;2.15;;;10.30;63.60;;;;;;5052394;28;20119;-73
2021/11/09 06:48:25;;;;;;;5.63;1.90;;;10.30;62.90;;;;;;5053897;28;20116;-74
2021/11/09 06:50:52;;;;;;;5.03;2.17;;;10.30;62.70;;;;;;5050418;28;20049;-73
2021/11/09 06:53:18;;;;;;;6.35;2.10;;;10.40;62.70;;;;;;5052694;28;20052;-74
2021/11/09 06:55:45;;;;;;;6.15;2.13;;;10.40;62.50;;;;;;5053223;28;20118;-73
2021/11/09 06:58:10;;;;;;;5.57;1.90;;;10.50;62.00;;;;;;5052671;28;20078;-73
2021/11/09 07:00:36;;;;;;;5.78;1.92;;;10.50;61.60;;;;;;5067867;28;20025;-75
2021/11/09 07:03:02;;;;;;;5.85;1.70;;;10.50;61.30;;;;;;5052666;28;20057;-75
2021/11/09 07:05:29;;;;;;;6.10;2.10;;;10.60;61.60;;;;;;5051503;28;20059;-75
2021/11/09 07:07:54;;;;;;;7.15;1.83;;;10.60;61.80;;;;;;5050068;28;20029;-75
2021/11/09 07:10:21;;;;;;;3.97;2.00;;;10.70;61.60;;;;;;5051590;28;20021;-76
2021/11/09 07:12:47;;;;;;;3.38;1.75;;;10.70;61.10;;;;;;5053186;28;20071;-76
2021/11/09 07:15:15;;;;;;;6.23;2.13;;;10.80;61.50;;;;;;5052861;28;20021;-75
2021/11/09 07:17:41;;;;;;;6.93;2.58;;;10.80;61.80;;;;;;5052753;28;20080;-76
2021/11/09 07:20:13;;;;;;;5.03;2.00;;;10.90;61.60;;;;;;5053164;28;20056;-75
2021/11/09 07:22:39;;;;;;;4.80;1.70;;;10.90;61.50;;;;;;5053315;28;20025;-75
2021/11/09 07:25:06;;;;;;;6.78;1.77;;;11.00;61.00;;;;;;5050607;28;20067;-75
2021/11/09 07:27:32;;;;;;;9.65;2.25;;;11.00;60.60;;;;;;5051598;28;20071;-76
2021/11/09 07:29:59;;;;;;;3.80;1.80;;;11.00;60.40;;;;;;5051999;28;20043;-75
2021/11/09 07:32:25;;;;;;;4.78;1.80;;;11.10;60.90;;;;;;5052183;28;20065;-74
2021/11/09 07:34:52;;;;;;;3.00;1.45;;;11.10;59.90;;;;;;5024636;28;20013;-74
2021/11/09 07:37:18;;;;;;;5.95;1.70;;;;;;;;;;5052927;28;20499;-74
2021/11/09 07:39:44;;;;;;;4.70;1.45;;;11.20;59.50;;;;;;5052248;28;20025;-72
2021/11/09 07:42:10;;;;;;;3.65;1.70;;;11.30;60.10;;;;;;5052572;28;20095;-75
2021/11/09 07:44:36;;;;;;;4.22;1.65;;;11.30;59.90;;;;;;5050683;28;20029;-75
2021/11/09 07:47:03;;;;;;;4.95;1.25;;;11.40;59.70;;;;;;5050485;28;20437;-75
2021/11/09 07:49:28;;;;;;;6.18;2.20;;;11.40;59.40;;;;;;5050982;28;20032;-73
2021/11/09 07:51:54;;;;;;;2.45;1.52;;;11.50;59.30;;;;;;5050053;28;20041;-74
2021/11/09 07:54:24;;;;;;;5.13;1.60;;;11.50;59.40;;;;;;5052018;28;20032;-74
2021/11/09 07:56:57;;;;;;;3.67;1.45;;;11.50;59.60;;;;;;5051489;28;20033;-76
2021/11/09 07:59:50;;;;;;;6.05;1.90;;;11.50;59.20;;;;;;5052258;28;20066;-74
2021/11/09 08:02:45;;;;;;;4.72;1.65;;;11.50;59.30;;;;;;5051072;28;20036;-75
2021/11/09 08:05:03;;;;;;;3.47;1.40;;;11.50;59.00;;;;;;5051314;28;20021;-73
2021/11/09 08:07:35;;;;;;;3.15;1.52;;;11.50;58.80;;;;;;5051833;28;20389;-75
2021/11/09 08:10:01;;;;;;;5.45;1.45;;;11.50;58.40;;;;;;5051039;28;20103;-75
2021/11/09 08:12:27;;;;;;;6.00;1.65;;;11.50;58.30;;;;;;5052065;28;20175;-73
2021/11/09 08:14:53;;;;;;;4.03;1.48;;;11.50;58.60;;;;;;5052542;28;20025;-72
2021/11/09 08:17:19;;;;;;;4.28;1.60;;;11.60;58.60;;;;;;5052227;28;20033;-73
2021/11/09 08:19:45;;;;;;;4.63;1.70;;;11.60;58.90;;;;;;5051901;28;20436;-72
2021/11/09 08:22:11;;;;;;;4.72;1.85;;;11.60;59.10;;;;;;5050753;28;20124;-73
2021/11/09 08:24:37;;;;;;;5.35;1.55;;;11.70;58.30;;;;;;5051327;28;20504;-72
2021/11/09 08:27:05;;;;;;;3.50;1.52;;;11.70;58.20;;;;;;5050976;28;20046;-73
2021/11/09 08:29:31;;;;;;;2.28;1.30;;;11.80;58.60;;;;;;5051546;28;20215;-74
2021/11/09 08:31:58;;;;;;;8.45;1.73;;;11.90;58.50;;;;;;5051942;28;20060;-75
2021/11/09 08:34:27;;;;;;;4.57;1.58;;;12.00;58.70;;;;;;5051940;28;20017;-73
2021/11/09 08:36:55;;;;;;;6.45;1.60;;;12.10;59.10;;;;;;5051097;28;20017;-73
2021/11/09 08:39:33;;;;;;;4.53;1.55;;;12.20;58.20;;;;;;5051830;28;20029;-73
2021/11/09 08:42:46;;;;;;;5.82;1.60;;;12.30;59.00;;;;;;5050840;28;20075;-74
2021/11/09 08:47:45;;;;;;;4.38;1.60;;;12.40;57.40;;;;;;5001170;28;20035;-76
2021/11/09 08:50:13;;;;;;;4.38;1.65;;;12.50;57.30;;;;;;5071799;28;20048;-76
2021/11/09 08:52:40;;;;;;;4.40;2.03;;;12.50;56.80;;;;;;5056628;28;20033;-75
2021/11/09 09:05:13;;;;;;;4.97;1.70;;;12.80;56.50;;;;;;5056058;28;20028;-75
2021/11/09 09:07:40;;;;;;;3.35;1.50;;;12.80;56.30;;;;;;5055904;28;20025;-74
2021/11/09 09:10:08;;;;;;;4.28;1.50;;;12.80;56.30;;;;;;5056128;28;20397;-74
2021/11/09 09:12:35;;;;;;;6.43;1.75;;;12.80;55.90;;;;;;5056057;28;20044;-73
2021/11/09 09:15:04;;;;;;;4.93;1.90;;;12.90;56.10;;;;;;5055811;28;20017;-73
2021/11/09 09:17:30;;;;;;;3.58;1.50;;;13.00;56.20;;;;;;5055494;28;20087;-76
2021/11/09 09:20:06;;;;;;;6.43;1.65;;;13.00;56.20;;;;;;5055802;28;20025;-77
2021/11/09 09:22:44;;;;;;;3.45;1.58;;;13.00;56.40;;;;;;5055899;28;20028;-76
2021/11/09 09:25:25;;;;;;;5.35;1.90;;;13.10;55.60;;;;;;5055607;28;20067;-76
2021/11/09 09:28:10;;;;;;;4.90;1.50;;;13.10;56.00;;;;;;5054163;28;20545;-76
2021/11/09 09:57:17;;;;;;;10.30;1.92;;;13.50;54.20;;;;;;5054475;28;20035;-74
2021/11/09 09:59:45;;;;;;;3.80;1.80;;;13.60;54.50;;;;;;5054390;28;20579;-76
2021/11/09 10:02:24;;;;;;;2.95;1.50;;;13.60;54.30;;;;;;5055099;28;20056;-76
2021/11/09 10:04:50;;;;;;;4.57;1.83;;;13.60;54.00;;;;;;5054848;28;20021;-77
2021/11/09 10:07:28;;;;;;;5.40;2.00;;;13.60;54.00;;;;;;5055000;28;20028;-75
2021/11/09 10:09:54;;;;;;;2.50;1.70;;;13.60;54.10;;;;;;5054705;28;20397;-76
2021/11/09 10:12:21;;;;;;;5.70;2.00;;;13.60;54.20;;;;;;5054597;28;20037;-76
2021/11/09 10:14:53;;;;;;;3.83;1.70;;;13.60;54.20;;;;;;5054577;28;20025;-74
2021/11/09 10:17:25;;;;;;;4.28;1.80;;;13.70;54.60;;;;;;5054316;28;20033;-75
2021/11/09 10:19:56;;;;;;;6.30;1.67;;;13.70;55.20;;;;;;5054481;28;20031;-76
2021/11/09 10:22:32;;;;;;;4.55;1.60;;;13.70;54.70;;;;;;5054788;28;20074;-76
2021/11/09 10:25:00;;;;;;;4.93;1.67;;;13.70;54.00;;;;;;5054708;28;20377;-77
2021/11/09 10:27:29;;;;;;;4.80;1.80;;;13.70;54.20;;;;;;5054661;28;20457;-76
2021/11/09 10:29:56;;;;;;;4.55;1.65;;;13.70;54.70;;;;;;5054143;28;20063;-77
2021/11/09 10:32:27;;;;;;;3.45;1.45;;;13.80;55.10;;;;;;5052883;28;20385;-76
2021/11/09 10:34:54;;;;;;;3.90;1.52;;;13.90;55.60;;;;;;5054307;28;20021;-76
2021/11/09 10:37:26;;;;;;;4.22;1.60;;;14.00;55.30;;;;;;5054151;28;20029;-77
2021/11/09 10:39:54;;;;;;;5.82;1.50;;;14.10;54.40;;;;;;5053906;28;20509;-76
2021/11/09 10:42:24;;;;;;;2.85;1.42;;;14.30;54.40;;;;;;5054393;28;20083;-76
2021/11/09 10:45:09;;;;;;;4.82;1.70;;;14.30;53.00;;;;;;5054261;28;20052;-76
2021/11/09 10:47:36;;;;;;;5.03;1.33;;;14.40;53.40;;;;;;5054355;28;20021;-76
2021/11/09 10:50:11;;;;;;;3.45;1.40;;;14.60;54.20;;;;;;5053988;28;20481;-76
2021/11/09 10:52:39;;;;;;;6.55;1.50;;;14.60;54.10;;;;;;5053723;28;20400;-77
2021/11/09 10:55:23;;;;;;;3.08;1.45;;;14.50;52.30;;;;;;5053871;28;20021;-77
2021/11/09 11:00:58;;;;;;;4.00;1.48;;;14.40;52.70;;;;;;5054162;28;20124;-77
2021/11/09 11:03:37;;;;;;;3.85;1.42;;;14.30;53.30;;;;;;5053460;28;20039;-77
2021/11/09 11:06:29;;;;;;;7.82;1.73;;;14.30;53.90;;;;;;5053767;28;20021;-77
2021/11/09 11:08:59;;;;;;;5.38;1.48;;;14.40;52.90;;;;;;5053464;28;20028;-77
2021/11/09 11:11:27;;;;;;;4.90;1.40;;;14.40;52.80;;;;;;5053582;28;20112;-77
2021/11/09 11:14:09;;;;;;;3.90;1.52;;;14.40;51.90;;;;;;5052542;28;20029;-76
2021/11/09 11:16:55;;;;;;;3.78;1.60;;;14.30;53.50;;;;;;5053957;28;20025;-77
2021/11/09 11:19:39;;;;;;;7.75;1.60;;;14.30;53.20;;;;;;5052175;28;20400;-78
2021/11/09 11:22:16;;;;;;;4.35;1.63;;;14.30;53.10;;;;;;5053597;28;20025;-76
2021/11/09 11:24:43;;;;;;;12.57;1.60;;;14.30;53.30;;;;;;5053274;28;20021;-76
2021/11/09 11:27:10;;;;;;;6.28;1.50;;;14.20;53.10;;;;;;5053181;28;20044;-76
2021/11/09 11:29:37;;;;;;;6.00;1.55;;;14.30;53.30;;;;;;5052828;28;20487;-74
2021/11/09 11:32:07;;;;;;;6.85;1.85;;;14.20;53.20;;;;;;5053078;28;20120;-74
2021/11/09 11:34:33;;;;;;;2.35;1.40;;;14.20;53.00;;;;;;5052917;28;20109;-76
2021/11/09 11:36:59;;;;;;;5.40;1.70;;;14.10;53.00;;;;;;5052851;28;20500;-76
2021/11/09 11:39:28;;;;;;;3.15;1.63;;;14.10;53.20;;;;;;5053004;28;20028;-74
2021/11/09 11:42:07;;;;;;;2.60;1.80;;;14.10;53.20;;;;;;5058177;28;20024;-74
2021/11/09 11:44:33;;;;;;;5.25;1.63;;;14.00;53.40;;;;;;5056661;28;20029;-75
2021/11/09 11:47:01;;;;;;;3.28;1.92;;;13.90;53.80;;;;;;5051400;28;20053;-75
2021/11/09 11:49:28;;;;;;;4.35;1.55;;;13.90;54.20;;;;;;5052110;28;20377;-75
2021/11/09 11:51:53;;;;;;;4.18;1.40;;;13.90;54.00;;;;;;5052422;28;20051;-76
2021/11/09 11:54:41;;;;;;;4.03;1.70;;;13.90;53.70;;;;;;5052386;28;20013;-76
2021/11/09 11:57:07;;;;;;;3.85;1.38;;;13.80;53.80;;;;;;5052664;28;20024;-76
2021/11/09 11:59:33;;;;;;;4.20;1.55;;;13.80;54.10;;;;;;5052433;28;20415;-75
2021/11/09 12:02:07;;;;;;;3.17;1.50;;;13.80;54.40;;;;;;5052348;28;20116;-76
2021/11/09 12:04:36;;;;;;;4.30;1.55;;;13.80;54.60;;;;;;5055241;28;20024;-75
2021/11/09 12:07:03;;;;;;;3.45;1.48;;;13.80;54.70;;;;;;5052545;28;20064;-74
2021/11/09 12:09:35;;;;;;;5.47;1.35;;;13.80;54.60;;;;;;5052438;28;20025;-76
2021/11/09 12:12:21;;;;;;;5.70;1.70;;;13.80;54.30;;;;;;5052521;28;20048;-75
2021/11/09 12:14:52;;;;;;;7.25;1.58;;;13.90;54.20;;;;;;5052174;28;20529;-75
2021/11/09 12:17:38;;;;;;;5.57;1.40;;;13.90;54.00;;;;;;5052392;28;20029;-75
2021/11/09 12:20:15;;;;;;;4.72;1.70;;;14.00;54.30;;;;;;5052260;28;20040;-75
2021/11/09 12:22:44;;;;;;;5.60;1.63;;;14.10;54.50;;;;;;5056255;28;20024;-76
2021/11/09 12:25:13;;;;;;;2.35;1.20;;;14.20;54.40;;;;;;5056371;28;20032;-76
2021/11/09 12:27:51;;;;;;;3.60;1.55;;;14.40;54.30;;;;;;5056612;28;20104;-75
2021/11/09 12:30:32;;;;;;;6.07;1.55;;;14.60;54.00;;;;;;5054446;28;20431;-75
2021/11/09 12:33:18;;;;;;;3.17;1.40;;;14.80;53.80;;;;;;5053147;28;20116;-76
2021/11/09 12:35:50;;;;;;;3.97;1.50;;;14.90;53.50;;;;;;5067678;28;20025;-72
2021/11/09 12:38:31;;;;;;;3.63;1.88;;;15.00;53.00;;;;;;5054592;28;20025;-73
2021/11/09 12:40:58;;;;;;;8.07;1.50;;;15.10;52.40;;;;;;5061408;28;20505;-72
2021/11/09 12:43:41;;;;;;;5.50;1.50;;;15.10;52.60;;;;;;5065578;28;20017;-72
2021/11/09 12:46:27;;;;;;;3.53;1.40;;;15.20;52.00;;;;;;5058174;28;20031;-73
2021/11/09 12:48:59;;;;;;;6.05;1.98;;;15.30;52.00;;;;;;5066576;28;20021;-72
2021/11/09 12:51:26;;;;;;;;;;;15.30;52.20;;;;;;5060206;28;20029;-73
2021/11/09 12:53:54;;;;;;;2.42;1.35;;;15.30;50.50;;;;;;5057810;28;20003;-73
2021/11/09 12:56:36;;;;;;;1.83;1.20;;;15.30;51.20;;;;;;5058227;28;20024;-73
2021/11/09 12:59:12;;;;;;;3.65;1.17;;;15.30;50.90;;;;;;5064082;28;20358;-73
2021/11/09 13:01:55;;;;;;;4.53;1.48;;;15.30;50.80;;;;;;5054726;28;20021;-73
2021/11/09 13:09:42;;;;;;;2.65;1.13;;;15.30;50.50;;;;;;5074371;28;20085;-73
2021/11/09 13:12:17;;;;;;;5.28;1.65;;;15.30;50.60;;;;;;5075028;28;20043;-72
2021/11/09 13:14:50;;;;;;;4.63;1.15;;;15.30;50.70;;;;;;5066658;28;20031;-73
2021/11/09 13:17:23;;;;;;;3.08;1.40;;;15.40;50.20;;;;;;5075018;28;20060;-72
2021/11/09 13:20:04;;;;;;;3.50;1.40;;;15.30;49.80;;;;;;5065693;28;20386;-74
2021/11/09 13:22:30;;;;;;;2.47;1.00;;;15.30;49.80;;;;;;5072835;28;20024;-75
2021/11/09 13:25:06;;;;;;;2.60;1.25;;;15.30;49.90;;;;;;5070558;28;20031;-74
2021/11/09 13:27:37;;;;;;;4.47;1.35;;;15.30;50.30;;;;;;5071273;28;20027;-74
2021/11/09 13:30:29;;;;;;;4.47;1.30;;;15.30;50.30;;;;;;5091023;28;20253;-75
2021/11/09 13:32:57;;;;;;;2.53;1.20;;;15.30;50.30;;;;;;5072773;28;20186;-74
2021/11/09 13:35:32;;;;;;;5.35;1.50;;;15.20;50.30;;;;;;5074957;28;20467;-74
2021/11/09 13:38:22;;;;;;;3.08;1.20;;;15.20;50.70;;;;;;5074594;28;20039;-74
2021/11/09 13:40:57;;;;;;;6.78;1.40;;;15.20;51.30;;;;;;5074387;28;20049;-74
2021/11/09 13:43:50;;;;;;;3.70;1.30;;;15.10;51.70;;;;;;5073994;28;20307;-74
2021/11/09 13:46:21;;;;;;;5.15;1.15;;;15.10;52.10;;;;;;5069443;28;20497;-75
2021/11/09 13:49:00;;;;;;;5.20;1.80;;;15.10;51.90;;;;;;5073935;28;20480;-74
2021/11/09 13:51:32;;;;;;;5.40;1.10;;;15.10;51.50;;;;;;5074073;28;20430;-74
2021/11/09 13:54:07;;;;;;;4.43;1.30;;;15.00;50.60;;;;;;5074496;28;20017;-74
2021/11/09 13:56:33;;;;;;;4.70;1.73;;;15.00;50.20;;;;;;5075198;28;20050;-75
2021/11/09 13:59:04;;;;;;;2.90;1.20;;;14.90;49.90;;;;;;5074495;28;20500;-74
2021/11/09 14:02:03;;;;;;;7.57;1.70;;;14.80;50.40;;;;;;5073911;28;20017;-74
2021/11/09 14:13:40;;;;;;;5.68;1.55;;;14.60;51.20;;;;;;5074819;28;20064;-73
2021/11/09 14:16:17;;;;;;;3.88;1.50;;;14.60;51.20;;;;;;5073184;28;20076;-74
2021/11/09 14:18:51;;;;;;;6.50;1.65;;;14.60;51.70;;;;;;5073589;28;20185;-75
2021/11/09 14:21:27;;;;;;;4.30;1.80;;;14.60;51.60;;;;;;5074198;28;20023;-73
2021/11/09 14:23:53;;;;;;;3.40;1.40;;;14.50;51.60;;;;;;5074147;28;20028;-72
2021/11/09 14:26:22;;;;;;;4.15;1.52;;;14.50;51.80;;;;;;5074335;28;20016;-73
2021/11/09 14:28:50;;;;;;;3.22;1.30;;;14.50;51.60;;;;;;5074131;28;20059;-73
2021/11/09 14:31:35;;;;;;;5.55;1.45;;;14.50;51.50;;;;;;5071790;28;20485;-73
2021/11/09 14:34:17;;;;;;;3.15;1.58;;;14.50;51.30;;;;;;5071407;28;20028;-73
2021/11/09 14:36:43;;;;;;;7.75;1.67;;;14.50;51.20;;;;;;5071225;28;20032;-73
2021/11/09 14:39:31;;;;;;;5.53;1.63;;;14.40;51.70;;;;;;5073754;28;20017;-73
2021/11/09 14:47:57;;;;;;;2.85;1.45;;;14.40;51.00;;;;;;5074164;28;20447;-73
2021/11/09 14:50:36;;;;;;;2.40;1.20;;;14.40;51.50;;;;;;5074192;28;20575;-73
2021/11/09 14:53:25;;;;;;;6.45;1.60;;;14.40;51.40;;;;;;5073845;28;20052;-73
2021/11/09 14:56:10;;;;;;;2.50;1.38;;;14.30;51.30;;;;;;5072878;28;20016;-74
2021/11/09 14:58:37;;;;;;;5.30;1.85;;;14.30;51.80;;;;;;5073347;28;20051;-73
2021/11/09 15:01:19;;;;;;;4.78;1.70;;;14.20;52.30;;;;;;5072521;28;20040;-74
2021/11/09 15:04:09;;;;;;;8.38;1.95;;;14.20;52.30;;;;;;5073208;28;20025;-74
2021/11/09 15:07:25;;;;;;;3.95;1.77;;;;;;;;;;5073023;28;20105;-73
2021/11/09 15:26:30;;;;;;;6.65;2.33;;;13.80;54.10;;;;;;5073205;28;20067;-73
2021/11/09 15:39:14;;;;;;;3.33;2.00;;;13.60;55.40;;;;;;5072895;28;20017;-73
2021/11/09 15:41:40;;;;;;;3.58;1.80;;;13.60;55.80;;;;;;5072939;28;20032;-74
2021/11/09 15:44:06;;;;;;;5.95;1.98;;;13.60;55.60;;;;;;5072901;28;20047;-74
2021/11/09 15:46:32;;;;;;;5.05;2.10;;;13.60;55.50;;;;;;5072892;28;20020;-73
2021/11/09 15:48:58;;;;;;;7.15;2.40;;;13.50;55.40;;;;;;5072513;28;20512;-72
2021/11/09 15:51:24;;;;;;;3.80;1.98;;;13.50;55.60;;;;;;5072944;28;20028;-73
2021/11/09 15:53:50;;;;;;;3.30;1.92;;;13.40;55.70;;;;;;5072635;28;20037;-72
2021/11/09 15:56:16;;;;;;;7.43;2.53;;;13.40;56.40;;;;;;5071049;28;20450;-73
2021/11/09 15:58:42;;;;;;;4.32;1.98;;;13.30;56.10;;;;;;5070903;28;20064;-72
2021/11/09 16:01:08;;;;;;;6.45;2.47;;;13.40;56.40;;;;;;5071759;28;20036;-73
2021/11/09 16:03:37;;;;;;;4.22;2.03;;;13.30;56.30;;;;;;5072151;28;20084;-73
2021/11/09 16:06:06;;;;;;;4.53;1.98;;;13.20;55.60;;;;;;5071888;28;20411;-73
2021/11/09 16:08:33;;;;;;;7.20;2.70;;;13.20;56.40;;;;;;5072429;28;20029;-73
2021/11/09 16:11:34;;;;;;;5.65;2.30;;;13.10;56.50;;;;;;5072334;28;20033;-73